createdAt,value
2023-04-16T00:00:52.968Z,87.31
2023-04-16T00:28:05.826Z,88.30
2023-04-16T00:32:22.697Z,88.25
2023-04-16T00:44:59.750Z,88.04
2023-04-16T00:49:10.894Z,88.06
2023-04-16T00:53:37.662Z,88.25
2023-04-16T01:06:33.374Z,88.09
2023-04-16T01:10:57.866Z,88.29
2023-04-16T01:15:43.696Z,88.32
2023-04-16T01:18:59.663Z,88.36
2023-04-16T01:26:20.412Z,87.71
2023-04-16T01:30:40.745Z,87.86
2023-04-16T01:34:37.230Z,88.00
2023-04-16T01:38:10.490Z,87.92
2023-04-16T01:41:24.321Z,88.02
2023-04-16T01:44:31.987Z,87.86
2023-04-16T01:47:44.234Z,87.82
2023-04-16T01:51:04.749Z,87.42
2023-04-16T01:54:21.345Z,88.01
2023-04-16T01:57:27.272Z,88.46
2023-04-16T02:00:37.358Z,87.83
2023-04-16T02:03:40.963Z,88.23
2023-04-16T02:06:45.502Z,88.34
2023-04-16T02:10:05.872Z,88.42
2023-04-16T02:13:08.944Z,87.87
2023-04-16T02:16:11.668Z,88.28
2023-04-16T02:19:14.173Z,88.23
2023-04-16T02:22:19.702Z,87.60
2023-04-16T02:25:23.499Z,87.63
2023-04-16T02:28:26.664Z,88.12
2023-04-16T02:31:32.251Z,87.69
2023-04-16T02:34:35.683Z,87.74
2023-04-16T02:37:41.105Z,87.48
2023-04-16T02:40:44.489Z,88.17
2023-04-16T02:43:53.604Z,87.53
2023-04-16T02:47:04.451Z,87.61
2023-04-16T02:50:10.194Z,87.92
2023-04-16T02:53:13.165Z,88.08
2023-04-16T02:56:18.799Z,87.96
2023-04-16T02:59:22.380Z,87.94
2023-04-16T03:02:28.587Z,87.81
2023-04-16T03:05:34.566Z,88.03
2023-04-16T03:08:37.660Z,88.36
2023-04-16T03:11:43.181Z,88.64
2023-04-16T03:14:52.910Z,87.93
2023-04-16T03:17:59.334Z,87.82
2023-04-16T03:21:02.330Z,87.62
2023-04-16T03:24:05.205Z,87.74
2023-04-16T03:27:08.078Z,87.69
2023-04-16T03:30:14.622Z,87.65
2023-04-16T03:33:19.849Z,87.48
2023-04-16T03:36:23.645Z,87.39
2023-04-16T03:39:31.833Z,87.46
2023-04-16T03:42:40.132Z,87.38
2023-04-16T03:46:12.441Z,87.36
2023-04-16T03:49:45.325Z,87.16
2023-04-16T03:53:04.981Z,87.61
2023-04-16T03:56:29.450Z,87.50
2023-04-16T03:59:58.924Z,87.45
2023-04-16T04:03:37.113Z,87.12
2023-04-16T04:07:05.557Z,86.95
2023-04-16T04:11:12.588Z,87.61
2023-04-16T04:14:58.429Z,87.84
2023-04-16T04:18:10.726Z,87.72
2023-04-16T04:25:29.329Z,86.93
2023-04-16T04:28:45.094Z,86.19
2023-04-16T04:36:00.643Z,85.86
2023-04-16T04:39:48.001Z,86.24
2023-04-16T04:43:26.492Z,86.29
2023-04-16T04:53:50.208Z,86.73
2023-04-16T04:57:02.693Z,87.04
2023-04-16T05:00:32.478Z,86.35
2023-04-16T05:03:52.410Z,85.49
2023-04-16T05:07:17.005Z,85.61
2023-04-16T05:10:39.119Z,85.65
2023-04-16T05:13:47.512Z,86.30
2023-04-16T05:17:20.599Z,86.55
2023-04-16T05:20:29.474Z,86.03
2023-04-16T05:23:49.333Z,86.17
2023-04-16T05:27:04.108Z,86.56
2023-04-16T05:33:51.875Z,85.95
2023-04-16T05:37:46.388Z,85.65
2023-04-16T05:40:54.892Z,85.71
2023-04-16T05:44:20.411Z,85.38
2023-04-16T05:48:11.792Z,84.42
2023-04-16T05:55:07.736Z,84.26
2023-04-16T05:58:29.438Z,84.90
2023-04-16T06:01:57.627Z,84.92
2023-04-16T06:09:15.153Z,84.18
2023-04-16T06:12:23.354Z,84.45
2023-04-16T06:16:08.521Z,84.25
2023-04-16T06:19:52.808Z,84.08
2023-04-16T06:23:40.664Z,83.57
2023-04-16T06:27:01.760Z,83.13
2023-04-16T06:30:50.397Z,82.24
2023-04-16T06:34:20.951Z,82.08
2023-04-16T06:45:54.214Z,81.22
2023-04-16T06:50:24.787Z,81.05
2023-04-16T06:54:52.502Z,79.89
2023-04-16T06:58:33.616Z,79.92
2023-04-16T07:01:51.772Z,79.31
2023-04-16T07:05:30.481Z,78.61
2023-04-16T07:09:13.924Z,78.02
2023-04-16T07:13:09.105Z,77.30
2023-04-16T07:16:43.455Z,71.85
2023-04-16T07:20:19.822Z,68.87
2023-04-16T07:24:20.805Z,70.81
2023-04-16T07:32:57.844Z,73.99
2023-04-16T07:36:15.818Z,74.71
2023-04-16T07:40:30.200Z,74.92
2023-04-16T07:51:35.593Z,75.30
2023-04-16T07:55:03.846Z,75.32
2023-04-16T07:58:22.161Z,74.84
2023-04-16T08:02:08.075Z,74.46
2023-04-16T08:05:36.645Z,74.82
2023-04-16T08:09:22.830Z,73.46
2023-04-16T08:12:38.361Z,73.52
2023-04-16T08:15:47.626Z,73.10
2023-04-16T08:18:58.552Z,72.38
2023-04-16T08:22:18.182Z,73.14
2023-04-16T08:25:25.042Z,71.34
2023-04-16T08:28:30.994Z,71.39
2023-04-16T08:31:58.342Z,71.62
2023-04-16T08:35:10.304Z,71.31
2023-04-16T08:39:10.683Z,70.95
2023-04-16T08:42:25.924Z,68.27
2023-04-16T08:46:08.206Z,68.23
2023-04-16T08:49:30.604Z,67.86
2023-04-16T08:56:54.741Z,67.12
2023-04-16T09:00:07.960Z,66.86
2023-04-16T09:03:45.736Z,65.74
2023-04-16T09:07:09.141Z,66.34
2023-04-16T09:10:18.661Z,66.68
2023-04-16T09:13:24.006Z,65.73
2023-04-16T09:16:43.132Z,65.16
2023-04-16T09:19:52.336Z,66.34
2023-04-16T09:22:59.819Z,65.69
2023-04-16T09:26:08.824Z,65.57
2023-04-16T09:29:41.578Z,65.45
2023-04-16T09:33:18.236Z,66.20
2023-04-16T09:37:19.834Z,66.16
2023-04-16T09:40:32.833Z,66.45
2023-04-16T09:43:48.508Z,66.07
2023-04-16T09:47:11.917Z,66.24
2023-04-16T09:50:27.093Z,66.75
2023-04-16T09:53:50.539Z,66.54
2023-04-16T09:57:45.870Z,65.66
2023-04-16T10:01:12.074Z,64.25
2023-04-16T10:04:19.051Z,63.55
2023-04-16T10:07:31.060Z,62.86
2023-04-16T10:11:03.972Z,62.77
2023-04-16T10:14:29.809Z,63.03
2023-04-16T10:21:09.275Z,62.90
2023-04-16T10:24:39.788Z,62.13
2023-04-16T10:28:08.181Z,61.35
2023-04-16T10:31:24.659Z,60.85
2023-04-16T10:34:38.132Z,58.86
2023-04-16T10:41:37.706Z,59.56
2023-04-16T10:45:07.489Z,59.30
2023-04-16T10:48:20.800Z,58.89
2023-04-16T10:51:48.944Z,57.83
2023-04-16T10:55:05.093Z,55.44
2023-04-16T10:59:05.097Z,56.05
2023-04-16T11:02:39.494Z,54.87
2023-04-16T11:05:51.976Z,49.80
2023-04-16T11:09:00.972Z,47.33
2023-04-16T11:12:09.056Z,47.15
2023-04-16T11:15:27.497Z,49.02
2023-04-16T11:18:51.987Z,47.18
2023-04-16T11:22:08.835Z,48.00
2023-04-16T11:25:40.381Z,47.03
2023-04-16T11:29:05.335Z,47.61
2023-04-16T11:33:00.331Z,48.64
2023-04-16T11:40:59.422Z,44.50
2023-04-16T11:44:24.491Z,45.46
2023-04-16T11:48:12.214Z,46.27
2023-04-16T11:51:44.942Z,44.69
2023-04-16T11:55:34.477Z,46.19
2023-04-16T11:59:13.534Z,47.13
2023-04-16T12:03:12.730Z,47.28
2023-04-16T12:07:03.081Z,46.79
2023-04-16T12:16:47.251Z,46.43
2023-04-16T13:35:05.678Z,42.26
2023-04-16T13:48:08.737Z,42.37
2023-04-16T14:09:37.531Z,47.86
2023-04-16T14:17:49.668Z,47.35
2023-04-16T14:21:34.972Z,47.72
2023-04-16T14:25:14.250Z,47.37
2023-04-16T14:35:11.931Z,48.46
2023-04-16T14:38:37.101Z,47.59
2023-04-16T14:41:44.258Z,48.05
2023-04-16T14:44:50.306Z,46.84
2023-04-16T14:47:54.237Z,47.15
2023-04-16T14:50:59.729Z,46.56
2023-04-16T14:54:14.233Z,46.16
2023-04-16T14:57:18.265Z,46.28
2023-04-16T15:00:27.615Z,45.88
2023-04-16T15:03:37.408Z,45.16
2023-04-16T15:06:41.974Z,44.23
2023-04-16T15:09:46.829Z,44.56
2023-04-16T15:12:50.313Z,43.81
2023-04-16T15:15:53.808Z,44.27
2023-04-16T15:18:57.592Z,44.31
2023-04-16T15:22:03.430Z,43.88
2023-04-16T15:25:08.240Z,44.56
2023-04-16T15:28:14.496Z,42.78
2023-04-16T15:31:20.196Z,42.04
2023-04-16T15:34:27.601Z,42.24
2023-04-16T15:37:55.750Z,42.90
2023-04-16T15:49:09.552Z,42.64
2023-04-16T15:52:29.474Z,42.15
2023-04-16T15:55:54.062Z,42.53
2023-04-16T15:59:36.429Z,42.92
2023-04-16T16:02:48.253Z,42.81
2023-04-16T16:06:04.273Z,43.58
2023-04-16T16:09:14.510Z,43.71
2023-04-16T16:13:07.912Z,44.26
2023-04-16T16:16:46.927Z,44.63
2023-04-16T16:20:03.593Z,44.73
2023-04-16T16:23:30.323Z,45.05
2023-04-16T16:26:54.583Z,45.38
2023-04-16T16:30:23.125Z,45.82
2023-04-16T16:33:46.172Z,45.96
2023-04-16T16:36:56.707Z,45.90
2023-04-16T16:40:03.260Z,46.17
2023-04-16T16:43:12.634Z,46.48
2023-04-16T16:46:20.155Z,46.63
2023-04-16T16:49:32.315Z,46.69
2023-04-16T16:52:36.940Z,46.88
2023-04-16T16:55:51.570Z,47.01
2023-04-16T16:59:13.605Z,47.24
2023-04-16T17:02:18.633Z,47.26
2023-04-16T17:05:30.878Z,47.26
2023-04-16T17:08:47.051Z,47.21
2023-04-16T17:12:30.673Z,47.81
2023-04-16T17:15:37.518Z,47.75
2023-04-16T17:18:40.585Z,47.95
2023-04-16T17:21:47.054Z,48.10
2023-04-16T17:25:15.719Z,48.16
2023-04-16T17:28:21.557Z,48.59
2023-04-16T17:31:27.554Z,48.57
2023-04-16T17:34:45.271Z,49.15
2023-04-16T17:37:54.911Z,49.54
2023-04-16T17:41:01.260Z,49.72
2023-04-16T17:44:05.153Z,50.22
2023-04-16T17:47:20.908Z,50.57
2023-04-16T17:50:24.520Z,50.86
2023-04-16T17:53:31.881Z,50.76
2023-04-16T17:56:46.514Z,50.92
2023-04-16T17:59:53.370Z,50.91
2023-04-16T18:03:00.428Z,51.30
2023-04-16T18:06:07.412Z,52.04
2023-04-16T18:09:36.364Z,52.35
2023-04-16T18:12:40.671Z,52.46
2023-04-16T18:15:59.163Z,52.59
2023-04-16T18:19:03.497Z,53.08
2023-04-16T18:22:10.359Z,54.27
2023-04-16T18:25:14.583Z,54.56
2023-04-16T18:28:18.653Z,55.20
2023-04-16T18:31:28.068Z,55.74
2023-04-16T18:34:47.420Z,55.72
2023-04-16T18:37:50.393Z,56.11
2023-04-16T18:40:57.357Z,56.25
2023-04-16T18:44:01.253Z,56.19
2023-04-16T18:47:51.107Z,56.28
2023-04-16T18:51:08.092Z,56.23
2023-04-16T18:58:25.494Z,56.90
2023-04-16T19:01:35.389Z,56.90
2023-04-16T19:04:53.200Z,56.53
2023-04-16T19:08:10.193Z,56.52
2023-04-16T19:11:47.527Z,56.25
2023-04-16T19:19:35.686Z,56.07
2023-04-16T19:22:43.408Z,57.14
2023-04-16T19:26:36.117Z,57.77
2023-04-16T19:30:11.371Z,57.63
2023-04-16T19:33:28.626Z,57.32
2023-04-16T19:37:00.743Z,56.95
2023-04-16T19:40:25.508Z,56.68
2023-04-16T19:43:55.812Z,56.50
2023-04-16T19:51:04.704Z,56.78
2023-04-16T19:54:14.318Z,56.66
2023-04-16T19:57:24.361Z,56.36
2023-04-16T20:00:29.013Z,56.59
2023-04-16T20:03:46.492Z,56.67
2023-04-16T20:06:58.915Z,55.92
2023-04-16T20:10:23.107Z,55.82
2023-04-16T20:14:20.169Z,55.55
2023-04-16T20:18:17.580Z,55.10
2023-04-16T20:22:47.178Z,55.30
2023-04-16T20:31:02.928Z,55.34
2023-04-16T20:48:18.171Z,54.63
2023-04-16T20:51:47.713Z,54.65
2023-04-16T20:56:30.052Z,54.75
2023-04-16T21:03:12.754Z,54.58
2023-04-16T21:06:22.670Z,54.62
2023-04-16T21:09:27.370Z,54.69
2023-04-16T21:12:36.783Z,54.28
2023-04-16T21:15:48.822Z,54.00
2023-04-16T21:18:55.655Z,54.90
2023-04-16T21:21:59.429Z,54.60
2023-04-16T21:25:21.043Z,54.32
2023-04-16T21:28:28.111Z,54.43
2023-04-16T21:31:45.056Z,54.51
2023-04-16T21:35:31.777Z,54.27
2023-04-16T21:39:24.405Z,54.65
2023-04-16T21:42:59.462Z,55.11
2023-04-16T21:46:13.337Z,55.36
2023-04-16T21:49:28.537Z,55.83
2023-04-16T21:52:34.179Z,56.33
2023-04-16T21:55:45.433Z,55.97
2023-04-16T21:59:00.274Z,56.65
2023-04-16T22:02:08.133Z,56.61
2023-04-16T22:05:40.704Z,56.56
2023-04-16T22:08:59.750Z,56.47
2023-04-16T22:12:12.544Z,56.46
2023-04-16T22:15:18.165Z,56.20
2023-04-16T22:18:28.099Z,55.96
2023-04-16T22:21:36.510Z,55.80
2023-04-16T22:24:55.343Z,55.71
2023-04-16T22:27:58.933Z,55.44
2023-04-16T22:31:05.815Z,55.50
2023-04-16T22:34:23.083Z,55.17
2023-04-16T22:37:38.737Z,55.33
2023-04-16T22:41:02.794Z,55.23
2023-04-16T22:44:17.847Z,55.31
2023-04-16T22:47:29.161Z,55.15
2023-04-16T22:50:35.589Z,55.01
2023-04-16T22:53:47.961Z,55.02
2023-04-16T22:56:57.468Z,55.05
2023-04-16T23:00:07.924Z,55.19
2023-04-16T23:03:14.201Z,54.93
2023-04-16T23:06:17.976Z,54.71
2023-04-16T23:09:27.689Z,55.08
2023-04-16T23:12:42.023Z,54.99
2023-04-16T23:16:01.290Z,55.31
2023-04-16T23:19:07.786Z,55.15
2023-04-16T23:22:12.435Z,55.42
2023-04-16T23:25:24.660Z,55.26
2023-04-16T23:28:29.322Z,55.94
2023-04-16T23:31:32.701Z,55.57
2023-04-16T23:34:35.768Z,55.64
2023-04-16T23:37:38.941Z,55.90
2023-04-16T23:40:45.726Z,55.83
2023-04-16T23:43:50.130Z,55.77
2023-04-16T23:46:54.457Z,55.48
2023-04-16T23:49:57.378Z,55.39
2023-04-16T23:53:06.602Z,55.80
2023-04-16T23:56:12.340Z,55.59
2023-04-16T23:59:17.773Z,55.55
